Time;durP1;ratioP1;P1;durP2;ratioP2;P2;SDS_P1;SDS_P2;PMS_P1;PMS_P2;Temp;Humidity;BMP_temperature;BMP_pressure;BME280_temperature;BME280_humidity;BME280_pressure;Samples;Min_cycle;Max_cycle;Signal;HPM_P1;HPM_P2
2023/01/28 00:01:44;;;;;;;18.17;9.85;;;-0.90;99.90;;;;;;5059981;28;20307;-83
2023/01/28 00:04:14;;;;;;;16.80;10.95;;;-0.80;99.90;;;;;;5055591;28;20298;-82
2023/01/28 00:06:42;;;;;;;16.08;9.98;;;-0.80;99.90;;;;;;5058573;28;20311;-82
2023/01/28 00:09:12;;;;;;;22.48;13.68;;;-0.80;99.90;;;;;;5055050;28;20607;-82
2023/01/28 00:11:39;;;;;;;21.42;11.48;;;-0.80;99.90;;;;;;5062186;28;20266;-82
2023/01/28 00:14:06;;;;;;;17.50;11.68;;;-0.80;99.90;;;;;;5067050;28;20815;-83
2023/01/28 00:16:33;;;;;;;24.15;12.15;;;-0.80;99.90;;;;;;5055790;28;20248;-83
2023/01/28 00:19:00;;;;;;;19.63;11.45;;;-0.80;99.90;;;;;;5068436;28;20233;-83
2023/01/28 00:21:26;;;;;;;14.43;10.48;;;-0.80;99.90;;;;;;5044378;28;20264;-83
2023/01/28 00:23:56;;;;;;;20.77;10.77;;;-0.90;99.90;;;;;;5061229;28;20290;-83
2023/01/28 00:26:24;;;;;;;20.00;10.93;;;-0.80;99.90;;;;;;5058307;28;20525;-83
2023/01/28 00:28:54;;;;;;;19.60;11.18;;;-0.80;99.90;;;;;;5070030;28;20210;-83
2023/01/28 00:31:23;;;;;;;17.60;11.57;;;-0.80;99.90;;;;;;5052303;28;20238;-83
2023/01/28 00:33:51;;;;;;;18.13;10.07;;;-0.80;99.90;;;;;;5054626;28;20207;-82
2023/01/28 00:36:22;;;;;;;22.60;11.05;;;-0.80;99.90;;;;;;5062304;28;20226;-82
2023/01/28 00:38:53;;;;;;;17.73;11.10;;;-0.80;99.90;;;;;;5061756;28;20233;-82
2023/01/28 00:41:25;;;;;;;22.58;13.23;;;-0.80;99.90;;;;;;5054578;28;20552;-82
2023/01/28 00:43:53;;;;;;;21.63;11.65;;;-0.80;99.90;;;;;;5058983;28;20298;-82
2023/01/28 00:46:21;;;;;;;17.63;11.10;;;-0.80;99.90;;;;;;5058497;28;20234;-82
2023/01/28 00:48:49;;;;;;;14.90;11.27;;;-0.80;99.90;;;;;;5063723;28;20210;-82
2023/01/28 00:51:19;;;;;;;18.40;12.50;;;-0.80;99.90;;;;;;5051321;28;20206;-82
2023/01/28 00:53:49;;;;;;;17.07;12.33;;;-0.80;99.90;;;;;;5060945;28;20480;-82
2023/01/28 00:56:18;;;;;;;20.50;12.00;;;-0.80;99.90;;;;;;5058976;28;20924;-82
2023/01/28 00:58:46;;;;;;;24.07;12.93;;;-0.80;99.90;;;;;;5062256;28;20234;-82
2023/01/28 01:01:15;;;;;;;16.60;11.90;;;-0.80;99.90;;;;;;5056607;28;20529;-82
2023/01/28 01:03:45;;;;;;;21.60;11.05;;;-0.80;99.90;;;;;;5067134;28;20467;-82
2023/01/28 01:06:13;;;;;;;15.45;11.35;;;-0.80;99.90;;;;;;5053642;28;20238;-81
2023/01/28 01:08:41;;;;;;;14.30;12.35;;;-0.80;99.90;;;;;;5064412;28;20233;-82
2023/01/28 01:11:10;;;;;;;21.67;12.05;;;-0.80;99.90;;;;;;5074436;28;20202;-82
2023/01/28 01:13:37;;;;;;;20.38;12.38;;;-0.80;99.90;;;;;;5061804;28;20233;-82
2023/01/28 01:16:12;;;;;;;14.77;9.80;;;-0.90;99.90;;;;;;5065909;28;20271;-82
2023/01/28 01:18:40;;;;;;;18.08;11.75;;;-0.90;99.90;;;;;;5061569;28;20232;-82
2023/01/28 01:21:09;;;;;;;18.98;12.43;;;-0.90;99.90;;;;;;5058419;28;20287;-82
2023/01/28 01:23:35;;;;;;;17.17;11.82;;;-0.80;99.90;;;;;;5058523;28;20580;-82
2023/01/28 01:26:03;;;;;;;18.08;12.15;;;-0.80;99.90;;;;;;5071446;28;20282;-82
2023/01/28 01:28:33;;;;;;;18.85;12.00;;;-0.90;99.90;;;;;;5078115;28;20256;-82
2023/01/28 01:31:01;;;;;;;18.57;11.90;;;-0.90;99.90;;;;;;5065564;28;20652;-82
2023/01/28 01:33:30;;;;;;;18.13;9.73;;;-0.90;99.90;;;;;;5065741;28;20497;-82
2023/01/28 01:35:58;;;;;;;17.00;11.70;;;-1.00;99.90;;;;;;5066937;28;20250;-82
2023/01/28 01:38:27;;;;;;;11.30;8.57;;;-1.00;99.90;;;;;;5060038;28;20279;-82
2023/01/28 01:40:57;;;;;;;22.43;10.50;;;-1.00;99.90;;;;;;5071277;28;20526;-82
2023/01/28 01:43:25;;;;;;;13.63;9.07;;;-1.00;99.90;;;;;;5070313;28;20466;-82
2023/01/28 01:45:57;;;;;;;17.50;10.70;;;-1.00;99.90;;;;;;5049136;28;20468;-82
2023/01/28 01:48:29;;;;;;;14.13;10.17;;;-1.00;99.90;;;;;;5056754;28;20491;-82
2023/01/28 01:51:01;;;;;;;15.73;10.60;;;-1.00;99.90;;;;;;5076446;28;20853;-82
2023/01/28 01:53:29;;;;;;;15.43;9.30;;;-1.00;99.90;;;;;;5079405;28;20608;-82
2023/01/28 01:56:01;;;;;;;14.50;8.75;;;-0.90;99.90;;;;;;5048139;28;20476;-82
2023/01/28 01:58:34;;;;;;;15.02;10.88;;;-0.90;99.90;;;;;;5053883;28;20554;-82
2023/01/28 02:01:01;;;;;;;16.52;10.48;;;-1.00;99.90;;;;;;5074827;28;20229;-82
2023/01/28 02:03:35;;;;;;;14.73;9.73;;;-1.00;99.90;;;;;;5077871;28;20230;-82
2023/01/28 02:06:04;;;;;;;20.30;8.80;;;-1.00;99.90;;;;;;5067312;28;20603;-82
2023/01/28 02:08:31;;;;;;;20.00;10.03;;;-1.00;99.90;;;;;;5070883;28;20544;-82
2023/01/28 02:11:02;;;;;;;13.50;8.50;;;-1.10;99.90;;;;;;5060653;28;20488;-82
2023/01/28 02:13:33;;;;;;;15.45;9.98;;;-1.10;99.90;;;;;;5055665;28;20495;-81
2023/01/28 02:16:02;;;;;;;16.88;10.50;;;-1.00;99.90;;;;;;5056047;28;20284;-82
2023/01/28 02:18:29;;;;;;;16.90;10.77;;;-1.00;99.90;;;;;;5050912;28;20311;-82
2023/01/28 02:21:37;;;;;;;17.48;9.23;;;-1.00;99.90;;;;;;5059783;28;20547;-81
2023/01/28 02:24:42;;;;;;;17.50;11.50;;;-1.10;99.90;;;;;;5064418;28;20259;-82
2023/01/28 02:27:27;;;;;;;15.95;10.77;;;-1.00;99.90;;;;;;5007970;28;20223;-82
2023/01/28 02:30:04;;;;;;;18.90;9.80;;;-1.00;99.90;;;;;;5065077;28;20198;-82
2023/01/28 02:32:44;;;;;;;20.95;10.75;;;-1.00;99.90;;;;;;5057725;28;20268;-82
2023/01/28 02:35:16;;;;;;;16.83;10.63;;;-0.90;99.90;;;;;;5056440;28;20224;-82
2023/01/28 02:37:48;;;;;;;16.95;10.63;;;-0.90;99.90;;;;;;5063340;28;20275;-82
2023/01/28 02:40:20;;;;;;;21.75;10.82;;;-0.90;99.90;;;;;;5062924;28;20233;-82
2023/01/28 02:42:49;;;;;;;15.45;11.00;;;-1.00;99.90;;;;;;5057746;28;20229;-81
2023/01/28 02:45:22;;;;;;;24.07;11.37;;;-0.90;99.90;;;;;;5055324;28;20272;-82
2023/01/28 02:47:57;;;;;;;19.30;11.97;;;-1.00;99.90;;;;;;5062252;28;20670;-82
2023/01/28 02:50:26;;;;;;;15.02;9.63;;;-1.00;99.90;;;;;;5062299;28;20444;-82
2023/01/28 02:55:56;;;;;;;19.02;9.90;;;-1.00;99.90;;;;;;5059076;28;20519;-82
2023/01/28 02:58:32;;;;;;;15.85;9.18;;;-0.90;99.90;;;;;;5065805;28;20212;-82
2023/01/28 03:01:11;;;;;;;13.30;9.07;;;-0.90;99.90;;;;;;5055309;28;20230;-81
2023/01/28 03:03:48;;;;;;;14.13;10.00;;;-1.00;99.90;;;;;;5063227;28;20239;-82
2023/01/28 03:06:19;;;;;;;16.30;9.98;;;-0.90;99.90;;;;;;5058910;28;20208;-82
2023/01/28 03:36:48;;;;;;;16.63;8.55;;;-0.90;99.90;;;;;;5053436;28;20218;-82
2023/01/28 03:39:15;;;;;;;15.00;8.90;;;-0.90;99.90;;;;;;5050711;28;20211;-82
2023/01/28 03:41:42;;;;;;;17.75;11.00;;;-0.90;99.90;;;;;;5062632;28;20241;-82
2023/01/28 03:46:53;;;;;;;14.68;9.25;;;-0.90;99.90;;;;;;5055975;28;20574;-82
2023/01/28 03:49:22;;;;;;;16.60;10.68;;;-0.90;99.90;;;;;;5059862;28;20225;-82
2023/01/28 03:51:50;;;;;;;16.05;9.00;;;-0.90;99.90;;;;;;5056073;28;20210;-82
2023/01/28 03:54:17;;;;;;;14.40;8.93;;;-0.90;99.90;;;;;;5056364;28;20815;-82
2023/01/28 03:56:47;;;;;;;12.93;8.33;;;-1.00;99.90;;;;;;5062045;28;20487;-82
2023/01/28 03:59:14;;;;;;;14.23;9.73;;;-0.90;99.90;;;;;;5052420;28;20590;-82
2023/01/28 04:01:41;;;;;;;14.32;10.15;;;-0.90;99.90;;;;;;5059100;28;20534;-82
2023/01/28 04:04:22;;;;;;;14.57;9.33;;;-1.00;99.90;;;;;;5061146;28;20522;-82
2023/01/28 04:06:58;;;;;;;14.50;9.87;;;-1.00;99.90;;;;;;5057291;28;20491;-82
2023/01/28 04:09:26;;;;;;;16.80;9.65;;;-1.00;99.90;;;;;;5056758;28;20555;-82
2023/01/28 04:11:52;;;;;;;16.30;10.93;;;-1.00;99.90;;;;;;5055030;28;20568;-82
2023/01/28 04:14:19;;;;;;;13.53;9.20;;;-1.00;99.90;;;;;;5061042;28;20577;-82
2023/01/28 04:16:46;;;;;;;14.40;11.30;;;-1.00;99.90;;;;;;5061957;28;20484;-82
2023/01/28 04:19:14;;;;;;;22.60;12.20;;;-0.90;99.90;;;;;;5056974;28;20579;-82
2023/01/28 04:21:41;;;;;;;19.30;11.73;;;-0.90;99.90;;;;;;5054656;28;20472;-82
2023/01/28 04:24:10;;;;;;;19.07;12.30;;;-0.90;99.90;;;;;;5063179;28;20483;-82
2023/01/28 04:26:39;;;;;;;22.00;11.67;;;-0.90;99.90;;;;;;5053470;28;20492;-82
2023/01/28 04:29:07;;;;;;;17.77;10.20;;;-1.00;99.90;;;;;;5051574;28;20480;-82
2023/01/28 04:31:34;;;;;;;19.47;9.90;;;-1.00;99.90;;;;;;5058145;28;20456;-82
2023/01/28 04:34:01;;;;;;;15.60;11.38;;;-0.90;99.90;;;;;;5055618;28;20488;-82
2023/01/28 04:36:29;;;;;;;16.60;11.60;;;-0.90;99.90;;;;;;5058145;28;20210;-82
2023/01/28 04:38:56;;;;;;;19.70;12.23;;;-0.90;99.90;;;;;;5060495;28;20533;-82
2023/01/28 04:41:27;;;;;;;23.33;12.38;;;-0.90;99.90;;;;;;5059341;28;21125;-82
2023/01/28 04:43:54;;;;;;;17.50;11.00;;;-0.90;99.90;;;;;;5058861;28;20287;-82
2023/01/28 04:46:21;;;;;;;14.53;10.07;;;-0.90;99.90;;;;;;5058045;28;20901;-82
2023/01/28 04:48:57;;;;;;;15.25;9.40;;;-0.90;99.90;;;;;;5058751;28;21029;-82
2023/01/28 04:51:24;;;;;;;13.47;9.10;;;-0.90;99.90;;;;;;5064974;28;20673;-82
2023/01/28 04:53:51;;;;;;;14.67;10.70;;;-0.80;99.90;;;;;;5061021;28;20586;-82
2023/01/28 04:56:20;;;;;;;16.20;11.45;;;-0.70;99.90;;;;;;5062449;28;20758;-82
2023/01/28 04:58:53;;;;;;;17.45;9.95;;;-0.70;99.90;;;;;;5064956;28;20237;-82
2023/01/28 05:01:20;;;;;;;14.87;11.20;;;-0.70;99.90;;;;;;5061899;28;20221;-82
2023/01/28 05:03:49;;;;;;;18.43;12.93;;;-0.80;99.90;;;;;;5057337;28;20448;-82
2023/01/28 05:06:18;;;;;;;15.50;9.30;;;-0.80;99.90;;;;;;5062195;28;20468;-82
2023/01/28 05:08:45;;;;;;;14.73;9.23;;;-0.90;99.90;;;;;;5063842;28;20452;-82
2023/01/28 05:11:14;;;;;;;13.60;10.77;;;-0.90;99.90;;;;;;5057519;28;20816;-82
2023/01/28 05:13:43;;;;;;;16.30;11.20;;;-0.90;99.90;;;;;;5057432;28;20856;-82
2023/01/28 05:16:15;;;;;;;14.43;10.45;;;-0.90;99.90;;;;;;5066062;28;20513;-82
2023/01/28 05:18:41;;;;;;;13.63;11.07;;;-0.90;99.90;;;;;;5055767;28;20234;-82
2023/01/28 05:21:08;;;;;;;14.82;10.43;;;-0.90;99.90;;;;;;5061016;28;21037;-82
2023/01/28 05:23:35;;;;;;;13.65;10.00;;;-0.90;99.90;;;;;;5062684;28;20233;-82
2023/01/28 05:26:02;;;;;;;16.85;11.88;;;-0.90;99.90;;;;;;5054104;28;20343;-82
2023/01/28 05:28:30;;;;;;;20.05;10.45;;;-1.00;99.90;;;;;;5064791;28;20649;-82
2023/01/28 05:30:57;;;;;;;17.15;11.23;;;-0.90;99.90;;;;;;5061862;28;20718;-82
2023/01/28 05:33:25;;;;;;;18.42;11.95;;;-0.90;99.90;;;;;;5066453;28;20673;-82
2023/01/28 05:35:52;;;;;;;14.48;9.35;;;-0.90;99.90;;;;;;5056599;28;20708;-82
2023/01/28 05:38:19;;;;;;;19.40;10.80;;;-0.90;99.90;;;;;;5068978;28;20298;-82
2023/01/28 05:40:47;;;;;;;17.63;9.68;;;-0.90;99.90;;;;;;5058170;28;20238;-82
2023/01/28 05:43:14;;;;;;;18.27;12.15;;;-1.00;99.90;;;;;;5066635;28;20716;-82
2023/01/28 05:45:41;;;;;;;22.00;11.35;;;-1.00;99.90;;;;;;5056895;28;20287;-82
2023/01/28 05:48:08;;;;;;;17.20;10.93;;;-0.90;99.90;;;;;;5066279;28;20210;-81
2023/01/28 05:50:37;;;;;;;22.50;13.40;;;-1.00;99.90;;;;;;5052632;28;20642;-80
2023/01/28 05:53:16;;;;;;;24.38;11.32;;;-1.00;99.90;;;;;;5058078;28;20275;-83
2023/01/28 05:55:44;;;;;;;24.02;13.38;;;-1.00;99.90;;;;;;5054780;28;20478;-83
2023/01/28 05:58:11;;;;;;;23.95;13.68;;;-1.00;99.90;;;;;;5062765;28;20210;-83
2023/01/28 06:00:38;;;;;;;22.50;13.63;;;-1.00;99.90;;;;;;5064319;28;20620;-83
2023/01/28 06:03:07;;;;;;;30.30;16.70;;;-1.00;99.90;;;;;;5063075;28;20673;-83
2023/01/28 06:05:34;;;;;;;22.45;13.85;;;-1.10;99.90;;;;;;5050589;28;20238;-83
2023/01/28 06:08:02;;;;;;;23.65;13.43;;;-1.10;99.90;;;;;;5063838;28;20206;-83
2023/01/28 06:10:30;;;;;;;19.20;12.32;;;-1.10;99.90;;;;;;5064281;28;20294;-84
2023/01/28 06:12:59;;;;;;;24.92;12.93;;;-1.10;99.90;;;;;;5061558;28;20280;-84
2023/01/28 06:15:26;;;;;;;32.10;14.45;;;-1.10;99.90;;;;;;5063670;28;20259;-83
2023/01/28 06:17:56;;;;;;;18.35;12.27;;;-1.00;99.90;;;;;;5052079;28;20210;-81
2023/01/28 06:20:23;;;;;;;21.08;12.98;;;-1.10;99.90;;;;;;5064735;28;20228;-83
2023/01/28 06:22:50;;;;;;;23.48;15.52;;;-1.20;99.90;;;;;;5058944;28;20229;-83
2023/01/28 06:25:22;;;;;;;19.58;12.45;;;-1.20;99.90;;;;;;5052112;28;20222;-83
2023/01/28 06:27:57;;;;;;;22.13;12.65;;;-1.20;99.90;;;;;;5062773;28;20271;-83
2023/01/28 06:30:24;;;;;;;22.83;13.82;;;-1.20;99.90;;;;;;5059076;28;20209;-83
2023/01/28 06:32:55;;;;;;;21.25;11.82;;;-1.10;99.90;;;;;;5057129;28;20207;-82
2023/01/28 06:35:22;;;;;;;17.13;10.93;;;-1.10;99.90;;;;;;5059232;28;20250;-83
2023/01/28 06:37:49;;;;;;;18.60;10.93;;;-1.00;99.90;;;;;;5061593;28;20263;-83
2023/01/28 06:40:21;;;;;;;19.15;11.32;;;-1.10;99.90;;;;;;5063948;28;20202;-83
2023/01/28 06:42:52;;;;;;;23.27;12.93;;;-1.10;99.90;;;;;;5059788;28;20214;-82
2023/01/28 06:45:19;;;;;;;17.10;11.32;;;-1.10;99.90;;;;;;5051051;28;20313;-83
2023/01/28 06:47:48;;;;;;;21.70;13.60;;;-1.10;99.90;;;;;;5061134;28;20271;-83
2023/01/28 06:50:15;;;;;;;26.08;14.85;;;-1.20;99.90;;;;;;5075010;28;20286;-83
2023/01/28 06:52:42;;;;;;;32.42;23.10;;;-1.10;99.90;;;;;;5053517;28;20676;-84
2023/01/28 06:55:12;;;;;;;24.77;14.20;;;-1.10;99.90;;;;;;5062287;28;20254;-83
2023/01/28 06:57:40;;;;;;;24.98;16.20;;;-1.10;99.90;;;;;;5062419;28;20241;-83
2023/01/28 07:00:11;;;;;;;28.38;18.23;;;-1.10;99.90;;;;;;5062609;28;20711;-84
2023/01/28 07:02:39;;;;;;;20.67;12.85;;;-1.10;99.90;;;;;;5060197;28;20199;-83
2023/01/28 07:05:06;;;;;;;23.48;14.90;;;-1.00;99.90;;;;;;5062265;28;20627;-83
2023/01/28 07:07:34;;;;;;;14.65;11.95;;;-1.00;99.90;;;;;;5061611;28;20631;-83
2023/01/28 07:10:00;;;;;;;18.08;12.00;;;-1.00;99.90;;;;;;5063481;28;20205;-83
2023/01/28 07:12:27;;;;;;;19.13;11.30;;;-1.10;99.90;;;;;;5060877;28;20205;-83
2023/01/28 07:14:54;;;;;;;15.95;12.63;;;-1.00;99.90;;;;;;5058609;28;20476;-83
2023/01/28 07:17:23;;;;;;;20.00;11.80;;;-0.90;99.90;;;;;;5055423;28;20203;-83
2023/01/28 07:19:50;;;;;;;43.13;24.43;;;-1.00;99.90;;;;;;5052686;28;20638;-83
2023/01/28 07:22:16;;;;;;;64.57;33.47;;;-1.00;99.90;;;;;;5059133;28;20480;-83
2023/01/28 07:24:45;;;;;;;19.77;13.60;;;-0.90;99.90;;;;;;5056499;28;20946;-84
2023/01/28 07:27:12;;;;;;;19.07;10.80;;;-0.90;99.90;;;;;;5064478;28;20480;-83
2023/01/28 07:29:39;;;;;;;16.63;10.17;;;-0.90;99.90;;;;;;5059819;28;20514;-83
2023/01/28 07:32:08;;;;;;;15.70;11.57;;;-0.90;99.90;;;;;;5069794;28;20447;-84
2023/01/28 07:34:43;;;;;;;43.60;30.98;;;-0.90;99.90;;;;;;5072432;28;20484;-83
2023/01/28 07:37:10;;;;;;;18.17;12.37;;;-0.90;99.90;;;;;;5060532;28;20215;-84
2023/01/28 07:39:37;;;;;;;26.35;20.60;;;-0.90;99.90;;;;;;5054702;28;20456;-83
2023/01/28 07:42:04;;;;;;;23.75;14.52;;;-0.90;99.90;;;;;;5060509;28;20213;-84
2023/01/28 07:44:31;;;;;;;24.45;17.30;;;-0.90;99.90;;;;;;5066634;28;20280;-83
2023/01/28 07:46:58;;;;;;;23.08;15.20;;;-0.90;99.90;;;;;;5071377;28;20805;-83
2023/01/28 07:49:25;;;;;;;29.17;15.97;;;-0.90;99.90;;;;;;5068218;28;20236;-83
2023/01/28 07:52:02;;;;;;;25.63;12.87;;;-0.90;99.90;;;;;;5071642;28;20540;-83
2023/01/28 07:54:32;;;;;;;24.17;14.93;;;-0.90;99.90;;;;;;5064220;28;21068;-83
2023/01/28 07:57:01;;;;;;;24.00;14.60;;;-0.90;99.90;;;;;;5064850;28;20483;-84
2023/01/28 07:59:28;;;;;;;23.60;14.73;;;-0.90;99.90;;;;;;5063993;28;20287;-83
2023/01/28 08:01:55;;;;;;;24.20;16.38;;;-0.90;99.90;;;;;;5052942;28;20237;-82
2023/01/28 08:04:25;;;;;;;31.38;17.92;;;-0.80;99.90;;;;;;5066290;28;20194;-83
2023/01/28 08:06:56;;;;;;;26.87;15.37;;;-0.80;99.90;;;;;;5065049;28;20255;-83
2023/01/28 08:09:23;;;;;;;31.30;21.03;;;-0.80;99.90;;;;;;5069012;28;20487;-83
2023/01/28 08:11:50;;;;;;;28.45;15.27;;;-0.90;99.90;;;;;;5071296;28;20551;-83
2023/01/28 08:14:16;;;;;;;25.07;15.10;;;-0.80;99.90;;;;;;5055669;28;20677;-82
2023/01/28 08:16:43;;;;;;;30.52;17.45;;;-0.80;99.90;;;;;;5051367;28;20491;-83
2023/01/28 08:19:13;;;;;;;25.00;15.37;;;-0.70;99.90;;;;;;5060911;28;20198;-83
2023/01/28 08:21:40;;;;;;;23.80;14.80;;;-0.70;99.90;;;;;;5069682;28;20516;-83
2023/01/28 08:24:11;;;;;;;28.00;16.00;;;-0.70;99.90;;;;;;5068786;28;20928;-82
2023/01/28 08:26:38;;;;;;;31.98;15.02;;;-0.60;99.90;;;;;;5060558;28;21001;-83
2023/01/28 08:29:06;;;;;;;26.60;14.77;;;-0.60;99.90;;;;;;5061999;28;20252;-83
2023/01/28 08:31:33;;;;;;;23.77;14.50;;;-0.50;99.90;;;;;;5057504;28;21248;-83
2023/01/28 08:34:03;;;;;;;30.85;16.30;;;-0.50;99.90;;;;;;5061108;28;20438;-83
2023/01/28 08:36:29;;;;;;;29.97;15.23;;;-0.50;99.90;;;;;;5059084;28;20287;-83
2023/01/28 08:38:56;;;;;;;24.47;12.80;;;-0.50;99.90;;;;;;5058129;28;20943;-83
2023/01/28 08:41:25;;;;;;;22.08;13.20;;;-0.40;99.90;;;;;;5056253;28;20572;-81
2023/01/28 08:43:52;;;;;;;21.27;12.90;;;-0.40;99.90;;;;;;5051650;28;21943;-81
2023/01/28 08:46:19;;;;;;;26.17;13.57;;;-0.40;99.90;;;;;;5053211;28;20299;-83
2023/01/28 08:48:47;;;;;;;26.20;12.60;;;-0.40;99.90;;;;;;5057249;28;20230;-83
2023/01/28 08:51:14;;;;;;;21.80;12.27;;;-0.40;99.90;;;;;;5054045;28;20517;-80
2023/01/28 08:53:43;;;;;;;20.17;12.50;;;-0.40;99.90;;;;;;5060778;28;20533;-81
2023/01/28 08:56:10;;;;;;;20.17;12.40;;;-0.30;99.90;;;;;;5061621;28;20557;-81
2023/01/28 08:58:39;;;;;;;19.00;10.97;;;-0.30;99.90;;;;;;5056203;28;20234;-81
2023/01/28 09:01:07;;;;;;;22.10;11.47;;;-0.20;99.90;;;;;;5063142;28;20467;-80
2023/01/28 09:03:34;;;;;;;19.20;12.37;;;-0.20;99.90;;;;;;5064440;28;20500;-83
2023/01/28 09:06:02;;;;;;;16.25;11.40;;;-0.20;99.90;;;;;;5060299;28;20463;-83
2023/01/28 09:08:32;;;;;;;18.38;11.63;;;-0.20;99.90;;;;;;5063396;28;20291;-83
2023/01/28 09:10:59;;;;;;;19.88;11.55;;;-0.10;99.90;;;;;;5067548;28;20528;-83
2023/01/28 09:13:26;;;;;;;22.40;11.93;;;-0.10;99.90;;;;;;5067230;28;20256;-83
2023/01/28 09:15:57;;;;;;;18.70;11.40;;;-0.10;99.90;;;;;;5057462;28;20236;-82
2023/01/28 09:18:23;;;;;;;23.48;13.25;;;-0.10;99.90;;;;;;5057748;28;20478;-83
2023/01/28 09:20:50;;;;;;;18.83;11.57;;;-0.10;99.90;;;;;;5056380;28;20226;-81
2023/01/28 09:23:17;;;;;;;17.83;11.63;;;-0.10;99.90;;;;;;5064832;28;20552;-81
2023/01/28 09:25:44;;;;;;;19.52;11.60;;;-0.10;99.90;;;;;;5059332;28;20537;-83
2023/01/28 09:28:11;;;;;;;21.80;10.77;;;0.00;99.90;;;;;;5062414;28;20214;-82
2023/01/28 09:30:38;;;;;;;21.57;13.17;;;0.20;99.90;;;;;;5063751;28;20553;-82
2023/01/28 09:33:07;;;;;;;17.80;12.93;;;0.10;99.90;;;;;;5057095;28;20464;-83
2023/01/28 09:35:35;;;;;;;22.35;13.85;;;0.10;99.90;;;;;;5051169;28;20520;-82
2023/01/28 09:38:03;;;;;;;25.52;13.82;;;0.00;99.90;;;;;;5052929;28;20585;-82
2023/01/28 09:40:37;;;;;;;19.90;12.32;;;0.00;99.90;;;;;;5054452;28;20606;-82
2023/01/28 09:43:39;;;;;;;20.50;13.97;;;-0.10;99.90;;;;;;5059425;28;20233;-82
2023/01/28 09:46:11;;;;;;;18.52;10.23;;;-0.10;99.90;;;;;;5059368;28;20989;-83
2023/01/28 09:48:47;;;;;;;24.20;14.52;;;-0.10;99.90;;;;;;5054819;28;20828;-81
2023/01/28 09:51:38;;;;;;;26.17;15.23;;;-0.20;99.90;;;;;;5061341;28;20213;-80
2023/01/28 09:54:15;;;;;;;20.60;13.68;;;-0.20;99.90;;;;;;5056739;28;20203;-81
2023/01/28 09:56:45;;;;;;;30.25;15.10;;;-0.20;99.90;;;;;;5057551;28;20252;-80
2023/01/28 09:59:19;;;;;;;38.80;24.70;;;-0.20;99.90;;;;;;5060253;28;20800;-81
2023/01/28 10:01:51;;;;;;;35.80;23.00;;;-0.10;99.90;;;;;;5059388;28;20653;-80
2023/01/28 10:04:36;;;;;;;33.75;17.33;;;-0.20;99.90;;;;;;5050355;28;20234;-80
2023/01/28 10:07:18;;;;;;;31.52;18.02;;;-0.10;99.90;;;;;;5053900;28;20634;-80
2023/01/28 10:09:51;;;;;;;28.85;17.38;;;-0.10;99.90;;;;;;5049372;28;20563;-80
2023/01/28 10:12:38;;;;;;;32.65;19.05;;;0.00;99.90;;;;;;5056962;28;20221;-80
2023/01/28 10:15:23;;;;;;;36.08;19.52;;;0.00;99.90;;;;;;5048152;28;20258;-82
2023/01/28 10:17:52;;;;;;;47.37;27.00;;;-0.10;99.90;;;;;;5053030;28;20730;-82
2023/01/28 10:20:29;;;;;;;28.10;17.70;;;-0.10;99.90;;;;;;5056028;28;20485;-81
2023/01/28 10:23:04;;;;;;;39.70;23.88;;;-0.20;99.90;;;;;;5056767;28;20575;-81
2023/01/28 10:25:34;;;;;;;30.85;19.13;;;-0.30;99.90;;;;;;5063642;28;20305;-81
2023/01/28 10:28:02;;;;;;;34.17;20.58;;;-0.20;99.90;;;;;;5055262;28;20214;-81
2023/01/28 10:30:35;;;;;;;41.90;26.83;;;-0.10;99.90;;;;;;5052528;28;20206;-82
2023/01/28 10:33:05;;;;;;;35.20;21.83;;;0.00;99.90;;;;;;5054574;28;20788;-82
2023/01/28 10:35:41;;;;;;;29.45;18.25;;;-0.10;99.90;;;;;;5062126;28;20257;-82
2023/01/28 10:38:22;;;;;;;26.42;17.27;;;-0.10;99.90;;;;;;5056983;28;20300;-82
2023/01/28 10:40:49;;;;;;;28.45;16.13;;;0.00;99.90;;;;;;5049437;28;20638;-82
2023/01/28 10:43:20;;;;;;;23.05;14.57;;;0.10;99.90;;;;;;5058065;28;20206;-82
2023/01/28 10:45:56;;;;;;;25.40;16.73;;;0.00;99.90;;;;;;5059262;28;20279;-83
2023/01/28 10:48:26;;;;;;;23.57;14.53;;;0.00;99.90;;;;;;5061078;28;20233;-82
2023/01/28 10:51:00;;;;;;;23.05;14.95;;;-0.10;99.90;;;;;;5059775;28;20464;-83
2023/01/28 10:53:35;;;;;;;21.90;14.70;;;0.00;99.90;;;;;;5057310;28;20214;-83
2023/01/28 10:56:04;;;;;;;21.67;13.13;;;0.00;99.90;;;;;;5058130;28;20497;-83
2023/01/28 10:58:34;;;;;;;27.37;16.50;;;0.10;99.90;;;;;;5059420;28;21031;-82
2023/01/28 11:01:04;;;;;;;25.23;15.80;;;0.10;99.90;;;;;;5060768;28;20484;-82
2023/01/28 11:03:34;;;;;;;24.23;14.80;;;0.00;99.90;;;;;;5060161;28;21048;-82
2023/01/28 11:06:03;;;;;;;26.10;15.23;;;0.00;99.90;;;;;;5062551;28;21077;-82
2023/01/28 11:08:31;;;;;;;29.53;17.47;;;0.00;99.90;;;;;;5056670;28;20472;-82
2023/01/28 11:10:59;;;;;;;27.13;14.45;;;-0.10;99.90;;;;;;5053298;28;20472;-82
2023/01/28 11:13:28;;;;;;;27.33;16.90;;;0.00;99.90;;;;;;5056814;28;20221;-80
2023/01/28 11:16:00;;;;;;;34.43;20.83;;;-0.10;99.90;;;;;;5054692;28;20511;-82
2023/01/28 11:18:31;;;;;;;29.98;16.70;;;0.00;99.90;;;;;;5052983;28;21058;-82
2023/01/28 11:21:00;;;;;;;26.00;15.70;;;0.20;99.90;;;;;;5059495;28;20315;-82
2023/01/28 11:23:32;;;;;;;23.55;14.95;;;0.10;99.90;;;;;;5061148;28;20764;-82
2023/01/28 11:26:03;;;;;;;23.33;14.52;;;0.20;99.90;;;;;;5056584;28;20262;-82
2023/01/28 11:28:32;;;;;;;25.13;15.38;;;0.10;99.90;;;;;;5058799;28;20246;-79
2023/01/28 11:31:01;;;;;;;28.00;16.10;;;0.00;99.90;;;;;;5055435;28;20202;-80
2023/01/28 11:33:34;;;;;;;29.08;15.40;;;0.00;99.90;;;;;;5054048;28;20477;-80
2023/01/28 11:36:08;;;;;;;21.70;14.60;;;0.00;99.90;;;;;;5053428;28;20863;-80
2023/01/28 11:38:46;;;;;;;24.55;15.07;;;-0.10;99.90;;;;;;5063203;28;20298;-82
2023/01/28 11:41:15;;;;;;;20.83;13.55;;;-0.10;99.90;;;;;;5053643;28;20267;-81
2023/01/28 11:43:44;;;;;;;23.88;14.70;;;0.00;99.90;;;;;;5055849;28;20308;-81
2023/01/28 11:46:24;;;;;;;23.83;17.77;;;0.00;99.90;;;;;;5049311;28;20293;-82
2023/01/28 11:48:58;;;;;;;22.38;14.90;;;0.00;99.90;;;;;;5050942;28;20786;-81
2023/01/28 11:51:36;;;;;;;25.33;15.60;;;-0.10;99.90;;;;;;5050416;28;20242;-81
2023/01/28 11:54:29;;;;;;;21.85;16.08;;;0.00;99.90;;;;;;5049730;28;20205;-81
2023/01/28 11:57:17;;;;;;;27.63;15.07;;;0.00;99.90;;;;;;5057561;28;20222;-81
2023/01/28 12:00:02;;;;;;;30.60;15.13;;;0.00;99.90;;;;;;5061028;28;20237;-81
2023/01/28 12:02:51;;;;;;;26.17;15.82;;;0.00;99.90;;;;;;5052979;28;20206;-81
2023/01/28 12:05:45;;;;;;;36.33;15.82;;;-0.10;99.90;;;;;;5051850;28;20202;-81
2023/01/28 12:08:25;;;;;;;20.67;12.65;;;0.00;99.90;;;;;;5050157;28;20202;-82
2023/01/28 12:11:17;;;;;;;25.02;13.52;;;0.00;99.90;;;;;;5049657;28;20284;-81
2023/01/28 12:13:59;;;;;;;24.38;15.20;;;0.00;99.90;;;;;;5058948;28;20238;-81
2023/01/28 12:16:45;;;;;;;23.00;13.90;;;0.00;99.90;;;;;;5063489;28;20225;-81
2023/01/28 12:19:37;;;;;;;17.65;13.35;;;0.00;99.90;;;;;;5062114;28;20295;-82
2023/01/28 12:22:35;;;;;;;29.55;14.27;;;0.00;99.90;;;;;;5048412;28;20217;-82
2023/01/28 12:25:22;;;;;;;27.65;16.23;;;0.00;99.90;;;;;;5056649;28;20298;-82
2023/01/28 12:28:02;;;;;;;33.85;18.90;;;0.00;99.90;;;;;;5057393;28;20206;-82
2023/01/28 12:30:44;;;;;;;33.70;18.20;;;-0.10;99.90;;;;;;5056976;28;20889;-82
2023/01/28 12:33:49;;;;;;;28.33;15.45;;;-0.10;99.90;;;;;;5056120;28;20452;-82
2023/01/28 12:36:33;;;;;;;43.58;21.05;;;-0.10;99.90;;;;;;5049941;28;20710;-82
2023/01/28 12:39:11;;;;;;;33.50;17.25;;;-0.10;99.90;;;;;;5040145;28;20241;-83
2023/01/28 12:41:42;;;;;;;23.17;13.95;;;0.00;99.90;;;;;;5049152;28;20603;-83
2023/01/28 12:44:23;;;;;;;24.38;12.05;;;-0.10;99.90;;;;;;5049083;28;20217;-83
2023/01/28 12:46:58;;;;;;;25.30;13.65;;;-0.10;99.90;;;;;;5054796;28;20231;-84
2023/01/28 12:49:34;;;;;;;20.30;13.23;;;-0.10;99.90;;;;;;5058169;28;20211;-82
2023/01/28 12:52:07;;;;;;;23.00;13.10;;;-0.10;99.90;;;;;;5056146;28;20514;-83
2023/01/28 12:54:39;;;;;;;19.48;10.98;;;-0.20;99.90;;;;;;5049913;28;20245;-83
2023/01/28 12:57:12;;;;;;;22.23;12.73;;;-0.20;99.90;;;;;;5054794;28;20805;-80
2023/01/28 12:59:46;;;;;;;19.83;12.37;;;-0.20;99.90;;;;;;5052347;28;20552;-80
2023/01/28 13:02:25;;;;;;;19.87;11.13;;;-0.30;99.90;;;;;;5057298;28;20444;-80
2023/01/28 13:05:02;;;;;;;17.48;12.20;;;-0.30;99.90;;;;;;5051362;28;20444;-80
2023/01/28 13:07:37;;;;;;;22.47;11.67;;;-0.30;99.90;;;;;;5063213;28;20976;-80
2023/01/28 13:10:09;;;;;;;19.67;11.50;;;-0.30;99.90;;;;;;5060823;28;21157;-80
2023/01/28 13:12:40;;;;;;;21.30;13.13;;;-0.20;99.90;;;;;;5058819;28;20220;-80
2023/01/28 13:15:15;;;;;;;20.75;11.55;;;-0.20;99.90;;;;;;5061370;28;20225;-79
2023/01/28 13:17:57;;;;;;;24.40;13.65;;;-0.20;99.90;;;;;;5065999;28;20205;-80
2023/01/28 13:20:37;;;;;;;23.90;13.63;;;-0.20;99.90;;;;;;5052926;28;20956;-80
2023/01/28 13:23:05;;;;;;;20.52;12.38;;;-0.20;99.90;;;;;;5051259;28;20226;-80
2023/01/28 13:25:34;;;;;;;18.52;11.07;;;-0.20;99.90;;;;;;5061501;28;20242;-80